sensor_id;sensor_type;location;lat;lon;timestamp;pressure;altitude;pressure_sealevel;temperature;humidity
31403;BME280;18039;52.188;21.024;2023-04-15T00:01:12;75903.75;;;-141.45;82.80
31403;BME280;18039;52.188;21.024;2023-04-15T00:03:44;75907.81;;;-141.45;82.55
31403;BME280;18039;52.188;21.024;2023-04-15T00:06:12;75901.72;;;-141.45;82.48
31403;BME280;18039;52.188;21.024;2023-04-15T00:08:40;75907.81;;;-141.45;82.94
31403;BME280;18039;52.188;21.024;2023-04-15T00:11:08;75907.81;;;-141.45;83.28
31403;BME280;18039;52.188;21.024;2023-04-15T00:13:35;75911.84;;;-141.45;84.52
31403;BME280;18039;52.188;21.024;2023-04-15T00:16:02;75919.97;;;-141.45;85.46
31403;BME280;18039;52.188;21.024;2023-04-15T00:18:30;75938.19;;;-141.45;86.80
31403;BME280;18039;52.188;21.024;2023-04-15T00:20:58;75952.38;;;-141.45;88.47
31403;BME280;18039;52.188;21.024;2023-04-15T00:23:25;75960.50;;;-141.45;89.33
31403;BME280;18039;52.188;21.024;2023-04-15T00:25:53;75968.59;;;-141.45;90.41
31403;BME280;18039;52.188;21.024;2023-04-15T00:28:20;75972.66;;;-141.45;91.10
31403;BME280;18039;52.188;21.024;2023-04-15T00:30:49;75984.81;;;-141.45;91.35
31403;BME280;18039;52.188;21.024;2023-04-15T00:33:16;75984.81;;;-141.45;91.90
31403;BME280;18039;52.188;21.024;2023-04-15T00:35:44;75992.94;;;-141.45;91.98
31403;BME280;18039;52.188;21.024;2023-04-15T00:38:11;75988.88;;;-141.45;90.91
31403;BME280;18039;52.188;21.024;2023-04-15T00:40:41;75982.78;;;-141.45;91.09
31403;BME280;18039;52.188;21.024;2023-04-15T00:43:09;75988.88;;;-141.45;91.20
31403;BME280;18039;52.188;21.024;2023-04-15T00:45:37;75978.75;;;-141.45;91.03
31403;BME280;18039;52.188;21.024;2023-04-15T00:48:05;75984.81;;;-141.45;91.70
31403;BME280;18039;52.188;21.024;2023-04-15T00:50:32;75978.75;;;-141.45;92.08
31403;BME280;18039;52.188;21.024;2023-04-15T00:52:59;75980.75;;;-141.45;92.01
31403;BME280;18039;52.188;21.024;2023-04-15T00:55:27;75988.88;;;-141.45;91.85
31403;BME280;18039;52.188;21.024;2023-04-15T00:57:55;75984.81;;;-141.45;92.07
31403;BME280;18039;52.188;21.024;2023-04-15T01:00:23;75984.81;;;-141.45;91.84
31403;BME280;18039;52.188;21.024;2023-04-15T01:02:51;75976.72;;;-141.45;91.46
31403;BME280;18039;52.188;21.024;2023-04-15T01:05:19;75976.72;;;-141.45;91.17
31403;BME280;18039;52.188;21.024;2023-04-15T01:07:47;75980.75;;;-141.45;91.82
31403;BME280;18039;52.188;21.024;2023-04-15T01:10:15;75978.75;;;-141.45;92.57
31403;BME280;18039;52.188;21.024;2023-04-15T01:12:42;75984.81;;;-141.45;92.93
31403;BME280;18039;52.188;21.024;2023-04-15T01:15:10;76005.09;;;-141.45;94.88
31403;BME280;18039;52.188;21.024;2023-04-15T01:17:37;76013.19;;;-141.45;96.21
31403;BME280;18039;52.188;21.024;2023-04-15T01:20:07;76029.41;;;-141.45;96.73
31403;BME280;18039;52.188;21.024;2023-04-15T01:22:37;76037.50;;;-141.45;97.40
31403;BME280;18039;52.188;21.024;2023-04-15T01:25:16;76041.56;;;-141.45;97.89
31403;BME280;18039;52.188;21.024;2023-04-15T01:27:44;76047.66;;;-141.45;98.87
31403;BME280;18039;52.188;21.024;2023-04-15T01:30:11;76049.69;;;-141.45;99.38
31403;BME280;18039;52.188;21.024;2023-04-15T01:32:38;76053.72;;;-141.45;99.93
31403;BME280;18039;52.188;21.024;2023-04-15T01:35:06;76053.72;;;-141.45;100.00
31403;BME280;18039;52.188;21.024;2023-04-15T01:37:34;76053.72;;;-141.45;100.00
31403;BME280;18039;52.188;21.024;2023-04-15T01:40:01;76057.78;;;-141.45;100.00
31403;BME280;18039;52.188;21.024;2023-04-15T01:42:30;76057.78;;;-141.45;100.00
31403;BME280;18039;52.188;21.024;2023-04-15T01:44:58;76061.84;;;-141.45;100.00
31403;BME280;18039;52.188;21.024;2023-04-15T01:47:25;76061.84;;;-141.45;100.00
31403;BME280;18039;52.188;21.024;2023-04-15T01:49:53;76061.84;;;-141.45;100.00
31403;BME280;18039;52.188;21.024;2023-04-15T01:52:21;76059.81;;;-141.45;100.00
31403;BME280;18039;52.188;21.024;2023-04-15T01:54:48;76055.75;;;-141.45;100.00
31403;BME280;18039;52.188;21.024;2023-04-15T01:57:15;76061.84;;;-141.45;100.00
31403;BME280;18039;52.188;21.024;2023-04-15T01:59:42;76059.81;;;-141.45;100.00
31403;BME280;18039;52.188;21.024;2023-04-15T02:02:09;76061.84;;;-141.45;100.00
31403;BME280;18039;52.188;21.024;2023-04-15T02:04:37;76061.84;;;-141.45;100.00
31403;BME280;18039;52.188;21.024;2023-04-15T02:07:05;76061.84;;;-141.45;100.00
31403;BME280;18039;52.188;21.024;2023-04-15T02:09:34;76059.81;;;-141.45;100.00
31403;BME280;18039;52.188;21.024;2023-04-15T02:12:01;76061.84;;;-141.45;100.00
31403;BME280;18039;52.188;21.024;2023-04-15T02:14:28;76065.88;;;-141.45;100.00
31403;BME280;18039;52.188;21.024;2023-04-15T02:16:55;76065.88;;;-141.45;100.00
31403;BME280;18039;52.188;21.024;2023-04-15T02:19:23;76067.91;;;-141.45;100.00
31403;BME280;18039;52.188;21.024;2023-04-15T02:21:51;76071.97;;;-141.45;100.00
31403;BME280;18039;52.188;21.024;2023-04-15T02:24:18;76065.88;;;-141.45;100.00
31403;BME280;18039;52.188;21.024;2023-04-15T02:26:45;76065.88;;;-141.45;100.00
31403;BME280;18039;52.188;21.024;2023-04-15T02:29:14;76069.94;;;-141.45;100.00
31403;BME280;18039;52.188;21.024;2023-04-15T02:31:41;76071.97;;;-141.45;100.00
31403;BME280;18039;52.188;21.024;2023-04-15T02:34:10;76069.94;;;-141.45;100.00
31403;BME280;18039;52.188;21.024;2023-04-15T02:36:37;76069.94;;;-141.45;100.00
31403;BME280;18039;52.188;21.024;2023-04-15T02:39:05;76067.91;;;-141.45;100.00
31403;BME280;18039;52.188;21.024;2023-04-15T02:41:33;76065.88;;;-141.45;100.00
31403;BME280;18039;52.188;21.024;2023-04-15T02:44:02;76065.88;;;-141.45;100.00
31403;BME280;18039;52.188;21.024;2023-04-15T02:46:29;76061.84;;;-141.45;100.00
31403;BME280;18039;52.188;21.024;2023-04-15T02:48:57;76061.84;;;-141.45;100.00
31403;BME280;18039;52.188;21.024;2023-04-15T02:51:29;76059.81;;;-141.45;100.00
31403;BME280;18039;52.188;21.024;2023-04-15T02:53:58;76059.81;;;-141.45;100.00
31403;BME280;18039;52.188;21.024;2023-04-15T02:56:25;76065.88;;;-141.45;100.00
31403;BME280;18039;52.188;21.024;2023-04-15T02:58:53;76065.88;;;-141.45;100.00
31403;BME280;18039;52.188;21.024;2023-04-15T03:05:06;76069.94;;;-141.45;100.00
31403;BME280;18039;52.188;21.024;2023-04-15T03:07:34;76069.94;;;-141.45;100.00
31403;BME280;18039;52.188;21.024;2023-04-15T03:10:02;76074.00;;;-141.45;100.00
31403;BME280;18039;52.188;21.024;2023-04-15T03:12:29;76069.94;;;-141.45;100.00
31403;BME280;18039;52.188;21.024;2023-04-15T03:14:57;76063.88;;;-141.45;100.00
31403;BME280;18039;52.188;21.024;2023-04-15T03:17:32;76071.97;;;-141.45;100.00
31403;BME280;18039;52.188;21.024;2023-04-15T03:20:01;76069.94;;;-141.45;100.00
31403;BME280;18039;52.188;21.024;2023-04-15T03:22:32;76069.94;;;-141.45;100.00
31403;BME280;18039;52.188;21.024;2023-04-15T03:24:59;76074.00;;;-141.45;100.00
31403;BME280;18039;52.188;21.024;2023-04-15T03:27:27;76069.94;;;-141.45;100.00
31403;BME280;18039;52.188;21.024;2023-04-15T03:29:58;76065.88;;;-141.45;100.00
31403;BME280;18039;52.188;21.024;2023-04-15T03:32:28;76061.84;;;-141.45;100.00
31403;BME280;18039;52.188;21.024;2023-04-15T03:34:56;76061.84;;;-141.45;100.00
31403;BME280;18039;52.188;21.024;2023-04-15T03:37:23;76059.81;;;-141.45;100.00
31403;BME280;18039;52.188;21.024;2023-04-15T03:39:50;76061.84;;;-141.45;100.00
31403;BME280;18039;52.188;21.024;2023-04-15T03:42:17;76061.84;;;-141.45;100.00
31403;BME280;18039;52.188;21.024;2023-04-15T03:44:44;76061.84;;;-141.45;100.00
31403;BME280;18039;52.188;21.024;2023-04-15T03:47:12;76065.88;;;-141.45;100.00
31403;BME280;18039;52.188;21.024;2023-04-15T03:49:39;76065.88;;;-141.45;100.00
31403;BME280;18039;52.188;21.024;2023-04-15T03:52:07;76065.88;;;-141.45;100.00
31403;BME280;18039;52.188;21.024;2023-04-15T03:54:34;76061.84;;;-141.45;100.00
31403;BME280;18039;52.188;21.024;2023-04-15T03:57:01;76061.84;;;-141.45;100.00
31403;BME280;18039;52.188;21.024;2023-04-15T03:59:28;76067.91;;;-141.45;100.00
31403;BME280;18039;52.188;21.024;2023-04-15T04:01:56;76059.81;;;-141.45;100.00
31403;BME280;18039;52.188;21.024;2023-04-15T04:04:24;76065.88;;;-141.45;100.00
31403;BME280;18039;52.188;21.024;2023-04-15T04:06:51;76061.84;;;-141.45;100.00
31403;BME280;18039;52.188;21.024;2023-04-15T04:09:18;76065.88;;;-141.45;100.00
31403;BME280;18039;52.188;21.024;2023-04-15T04:11:46;76071.97;;;-141.45;100.00
31403;BME280;18039;52.188;21.024;2023-04-15T04:14:13;76076.03;;;-141.45;100.00
31403;BME280;18039;52.188;21.024;2023-04-15T04:16:40;76069.94;;;-141.45;100.00
31403;BME280;18039;52.188;21.024;2023-04-15T04:19:08;76074.00;;;-141.45;100.00
31403;BME280;18039;52.188;21.024;2023-04-15T04:21:35;76069.94;;;-141.45;100.00
31403;BME280;18039;52.188;21.024;2023-04-15T04:24:02;76069.94;;;-141.45;100.00
31403;BME280;18039;52.188;21.024;2023-04-15T04:26:30;76074.00;;;-141.45;100.00
31403;BME280;18039;52.188;21.024;2023-04-15T04:28:57;76078.06;;;-141.45;100.00
31403;BME280;18039;52.188;21.024;2023-04-15T04:31:24;76082.09;;;-141.45;100.00
31403;BME280;18039;52.188;21.024;2023-04-15T04:33:52;76078.06;;;-141.45;100.00
31403;BME280;18039;52.188;21.024;2023-04-15T04:36:19;76074.00;;;-141.45;100.00
31403;BME280;18039;52.188;21.024;2023-04-15T04:38:46;76084.13;;;-141.45;100.00
31403;BME280;18039;52.188;21.024;2023-04-15T04:41:13;76074.00;;;-141.45;100.00
31403;BME280;18039;52.188;21.024;2023-04-15T04:43:41;76069.94;;;-141.45;100.00
31403;BME280;18039;52.188;21.024;2023-04-15T04:46:08;76074.00;;;-141.45;100.00
31403;BME280;18039;52.188;21.024;2023-04-15T04:48:36;76065.88;;;-141.45;100.00
31403;BME280;18039;52.188;21.024;2023-04-15T04:51:03;76065.88;;;-141.45;100.00
31403;BME280;18039;52.188;21.024;2023-04-15T04:53:31;76069.94;;;-141.45;100.00
31403;BME280;18039;52.188;21.024;2023-04-15T04:55:58;76065.88;;;-141.45;100.00
31403;BME280;18039;52.188;21.024;2023-04-15T04:58:25;76074.00;;;-141.45;100.00
31403;BME280;18039;52.188;21.024;2023-04-15T05:00:53;76069.94;;;-141.45;100.00
31403;BME280;18039;52.188;21.024;2023-04-15T05:03:20;76078.06;;;-141.45;100.00
31403;BME280;18039;52.188;21.024;2023-04-15T05:05:48;76074.00;;;-141.45;100.00
31403;BME280;18039;52.188;21.024;2023-04-15T05:08:15;76065.88;;;-141.45;100.00
31403;BME280;18039;52.188;21.024;2023-04-15T05:10:43;76071.97;;;-141.45;100.00
31403;BME280;18039;52.188;21.024;2023-04-15T05:13:10;76069.94;;;-141.45;100.00
31403;BME280;18039;52.188;21.024;2023-04-15T05:15:38;76065.88;;;-141.45;100.00
31403;BME280;18039;52.188;21.024;2023-04-15T05:18:07;76065.88;;;-141.45;100.00
31403;BME280;18039;52.188;21.024;2023-04-15T05:20:34;76067.91;;;-141.45;100.00
31403;BME280;18039;52.188;21.024;2023-04-15T05:23:02;76069.94;;;-141.45;100.00
31403;BME280;18039;52.188;21.024;2023-04-15T05:25:29;76069.94;;;-141.45;100.00
31403;BME280;18039;52.188;21.024;2023-04-15T05:27:57;76063.88;;;-141.45;100.00
31403;BME280;18039;52.188;21.024;2023-04-15T05:30:24;76061.84;;;-141.45;100.00
31403;BME280;18039;52.188;21.024;2023-04-15T05:32:51;76065.88;;;-141.45;100.00
31403;BME280;18039;52.188;21.024;2023-04-15T05:35:18;76065.88;;;-141.45;100.00
31403;BME280;18039;52.188;21.024;2023-04-15T05:37:46;76074.00;;;-141.45;100.00
31403;BME280;18039;52.188;21.024;2023-04-15T05:40:14;76067.91;;;-141.45;100.00
31403;BME280;18039;52.188;21.024;2023-04-15T05:42:41;76076.03;;;-141.45;100.00
31403;BME280;18039;52.188;21.024;2023-04-15T05:45:09;76074.00;;;-141.45;100.00
31403;BME280;18039;52.188;21.024;2023-04-15T05:47:36;76078.06;;;-141.45;100.00
31403;BME280;18039;52.188;21.024;2023-04-15T05:50:06;76078.06;;;-141.45;100.00
31403;BME280;18039;52.188;21.024;2023-04-15T05:52:34;76074.00;;;-141.45;100.00
31403;BME280;18039;52.188;21.024;2023-04-15T05:55:01;76069.94;;;-141.45;100.00
31403;BME280;18039;52.188;21.024;2023-04-15T05:57:29;76078.06;;;-141.45;100.00
31403;BME280;18039;52.188;21.024;2023-04-15T05:59:56;76086.16;;;-141.45;100.00
31403;BME280;18039;52.188;21.024;2023-04-15T06:02:24;76080.06;;;-141.45;100.00
31403;BME280;18039;52.188;21.024;2023-04-15T06:04:52;76074.00;;;-141.45;100.00
31403;BME280;18039;52.188;21.024;2023-04-15T06:07:19;76084.13;;;-141.45;100.00
31403;BME280;18039;52.188;21.024;2023-04-15T06:09:46;76086.16;;;-141.45;100.00
31403;BME280;18039;52.188;21.024;2023-04-15T06:12:14;76080.06;;;-141.45;100.00
31403;BME280;18039;52.188;21.024;2023-04-15T06:14:42;76084.13;;;-141.45;100.00
31403;BME280;18039;52.188;21.024;2023-04-15T06:17:10;76086.16;;;-141.45;100.00
31403;BME280;18039;52.188;21.024;2023-04-15T06:19:37;76090.22;;;-141.45;100.00
31403;BME280;18039;52.188;21.024;2023-04-15T06:22:05;76084.13;;;-141.45;100.00
31403;BME280;18039;52.188;21.024;2023-04-15T06:24:33;76088.19;;;-141.45;100.00
31403;BME280;18039;52.188;21.024;2023-04-15T06:27:00;76090.22;;;-141.45;100.00
31403;BME280;18039;52.188;21.024;2023-04-15T06:29:28;76086.16;;;-141.45;100.00
31403;BME280;18039;52.188;21.024;2023-04-15T06:31:55;76086.16;;;-141.45;100.00
31403;BME280;18039;52.188;21.024;2023-04-15T06:34:23;76086.16;;;-141.45;100.00
31403;BME280;18039;52.188;21.024;2023-04-15T06:36:50;76084.13;;;-141.45;100.00
31403;BME280;18039;52.188;21.024;2023-04-15T06:39:17;76090.22;;;-141.45;100.00
31403;BME280;18039;52.188;21.024;2023-04-15T06:41:44;76090.22;;;-141.45;100.00
31403;BME280;18039;52.188;21.024;2023-04-15T06:44:11;76086.16;;;-141.45;100.00
31403;BME280;18039;52.188;21.024;2023-04-15T06:46:39;76086.16;;;-141.45;100.00
31403;BME280;18039;52.188;21.024;2023-04-15T06:49:06;76090.22;;;-141.45;100.00
31403;BME280;18039;52.188;21.024;2023-04-15T06:51:34;76094.25;;;-141.45;100.00
31403;BME280;18039;52.188;21.024;2023-04-15T06:54:03;76096.28;;;-141.45;100.00
31403;BME280;18039;52.188;21.024;2023-04-15T06:56:32;76102.38;;;-141.45;100.00
31403;BME280;18039;52.188;21.024;2023-04-15T06:58:59;76098.31;;;-141.45;100.00
31403;BME280;18039;52.188;21.024;2023-04-15T07:01:28;76094.25;;;-141.45;100.00
31403;BME280;18039;52.188;21.024;2023-04-15T07:03:55;76094.25;;;-141.45;100.00
31403;BME280;18039;52.188;21.024;2023-04-15T07:06:23;76092.25;;;-141.45;100.00
31403;BME280;18039;52.188;21.024;2023-04-15T07:08:50;76086.16;;;-141.45;100.00
31403;BME280;18039;52.188;21.024;2023-04-15T07:11:18;76092.25;;;-141.45;100.00
31403;BME280;18039;52.188;21.024;2023-04-15T07:13:46;76098.31;;;-141.45;100.00
31403;BME280;18039;52.188;21.024;2023-04-15T07:16:13;76098.31;;;-141.45;100.00
31403;BME280;18039;52.188;21.024;2023-04-15T07:18:41;76102.38;;;-141.45;100.00
31403;BME280;18039;52.188;21.024;2023-04-15T07:21:09;76102.38;;;-141.45;100.00
31403;BME280;18039;52.188;21.024;2023-04-15T07:23:37;76102.38;;;-141.45;100.00
31403;BME280;18039;52.188;21.024;2023-04-15T07:26:04;76106.41;;;-141.45;100.00
31403;BME280;18039;52.188;21.024;2023-04-15T07:28:31;76094.25;;;-141.45;100.00
31403;BME280;18039;52.188;21.024;2023-04-15T07:30:59;76094.25;;;-141.45;100.00
31403;BME280;18039;52.188;21.024;2023-04-15T07:33:26;76094.25;;;-141.45;100.00
31403;BME280;18039;52.188;21.024;2023-04-15T07:35:54;76094.25;;;-141.45;100.00
31403;BME280;18039;52.188;21.024;2023-04-15T07:38:21;76098.31;;;-141.45;100.00
31403;BME280;18039;52.188;21.024;2023-04-15T07:40:49;76096.28;;;-141.45;100.00
31403;BME280;18039;52.188;21.024;2023-04-15T07:43:16;76098.31;;;-141.45;100.00
31403;BME280;18039;52.188;21.024;2023-04-15T07:45:44;76094.25;;;-141.45;100.00
31403;BME280;18039;52.188;21.024;2023-04-15T07:48:11;76092.25;;;-141.45;100.00
31403;BME280;18039;52.188;21.024;2023-04-15T07:50:38;76092.25;;;-141.45;100.00
31403;BME280;18039;52.188;21.024;2023-04-15T07:53:05;76086.16;;;-141.45;100.00
31403;BME280;18039;52.188;21.024;2023-04-15T07:55:33;76094.25;;;-141.45;100.00
31403;BME280;18039;52.188;21.024;2023-04-15T07:58:01;76094.25;;;-141.45;100.00
31403;BME280;18039;52.188;21.024;2023-04-15T08:00:28;76082.09;;;-141.45;100.00
31403;BME280;18039;52.188;21.024;2023-04-15T08:02:55;76090.22;;;-141.45;100.00
31403;BME280;18039;52.188;21.024;2023-04-15T08:05:23;76084.13;;;-141.45;100.00
31403;BME280;18039;52.188;21.024;2023-04-15T08:07:51;76090.22;;;-141.45;100.00
31403;BME280;18039;52.188;21.024;2023-04-15T08:10:19;76086.16;;;-141.45;100.00
31403;BME280;18039;52.188;21.024;2023-04-15T08:12:46;76090.22;;;-141.45;100.00
31403;BME280;18039;52.188;21.024;2023-04-15T08:15:15;76086.16;;;-141.45;100.00
31403;BME280;18039;52.188;21.024;2023-04-15T08:17:42;76086.16;;;-141.45;100.00
31403;BME280;18039;52.188;21.024;2023-04-15T08:20:10;76080.06;;;-141.45;100.00
31403;BME280;18039;52.188;21.024;2023-04-15T08:22:38;76082.09;;;-141.45;100.00
31403;BME280;18039;52.188;21.024;2023-04-15T08:25:05;76078.06;;;-141.45;100.00
31403;BME280;18039;52.188;21.024;2023-04-15T08:27:33;76082.09;;;-141.45;100.00
31403;BME280;18039;52.188;21.024;2023-04-15T08:30:00;76065.88;;;-141.45;100.00
31403;BME280;18039;52.188;21.024;2023-04-15T08:32:30;76061.84;;;-141.45;100.00
31403;BME280;18039;52.188;21.024;2023-04-15T08:34:58;76059.81;;;-141.45;100.00
31403;BME280;18039;52.188;21.024;2023-04-15T08:37:26;76057.78;;;-141.45;100.00
31403;BME280;18039;52.188;21.024;2023-04-15T08:39:53;76051.69;;;-141.45;100.00
31403;BME280;18039;52.188;21.024;2023-04-15T08:42:30;76053.72;;;-141.45;100.00
31403;BME280;18039;52.188;21.024;2023-04-15T08:45:03;76049.69;;;-141.45;100.00
31403;BME280;18039;52.188;21.024;2023-04-15T08:47:30;76043.59;;;-141.45;100.00
31403;BME280;18039;52.188;21.024;2023-04-15T08:49:58;76057.78;;;-141.45;100.00
31403;BME280;18039;52.188;21.024;2023-04-15T08:52:25;76053.72;;;-141.45;100.00
31403;BME280;18039;52.188;21.024;2023-04-15T08:54:56;76043.59;;;-141.45;100.00
31403;BME280;18039;52.188;21.024;2023-04-15T08:57:30;76025.34;;;-141.45;100.00
31403;BME280;18039;52.188;21.024;2023-04-15T08:59:58;76021.31;;;-141.45;100.00
31403;BME280;18039;52.188;21.024;2023-04-15T09:02:25;76033.47;;;-141.45;100.00
31403;BME280;18039;52.188;21.024;2023-04-15T09:04:53;76023.31;;;-141.45;100.00
31403;BME280;18039;52.188;21.024;2023-04-15T09:07:20;76009.13;;;-141.45;100.00
31403;BME280;18039;52.188;21.024;2023-04-15T09:09:48;76009.13;;;-141.45;100.00
31403;BME280;18039;52.188;21.024;2023-04-15T09:12:16;76017.25;;;-141.45;100.00
31403;BME280;18039;52.188;21.024;2023-04-15T09:14:45;76013.19;;;-141.45;100.00
31403;BME280;18039;52.188;21.024;2023-04-15T09:17:17;76019.28;;;-141.45;100.00
31403;BME280;18039;52.188;21.024;2023-04-15T09:19:46;76013.19;;;-141.45;100.00
31403;BME280;18039;52.188;21.024;2023-04-15T09:22:14;76021.31;;;-141.45;100.00
31403;BME280;18039;52.188;21.024;2023-04-15T09:24:41;76013.19;;;-141.45;100.00
31403;BME280;18039;52.188;21.024;2023-04-15T09:27:09;76021.31;;;-141.45;100.00
31403;BME280;18039;52.188;21.024;2023-04-15T09:29:37;76011.16;;;-141.45;100.00
31403;BME280;18039;52.188;21.024;2023-04-15T09:32:13;76005.09;;;-141.45;100.00
31403;BME280;18039;52.188;21.024;2023-04-15T09:34:42;76013.19;;;-141.45;100.00
31403;BME280;18039;52.188;21.024;2023-04-15T09:37:09;76009.13;;;-141.45;100.00
31403;BME280;18039;52.188;21.024;2023-04-15T09:39:48;76009.13;;;-141.45;100.00
31403;BME280;18039;52.188;21.024;2023-04-15T09:42:16;76007.13;;;-141.45;100.00
31403;BME280;18039;52.188;21.024;2023-04-15T09:44:50;75992.94;;;-141.45;100.00
31403;BME280;18039;52.188;21.024;2023-04-15T09:47:31;75992.94;;;-141.45;100.00
31403;BME280;18039;52.188;21.024;2023-04-15T09:50:00;75992.94;;;-141.45;100.00
31403;BME280;18039;52.188;21.024;2023-04-15T09:52:28;75992.94;;;-141.45;100.00
31403;BME280;18039;52.188;21.024;2023-04-15T09:54:57;75996.97;;;-141.45;100.00
31403;BME280;18039;52.188;21.024;2023-04-15T09:57:32;75992.94;;;-141.45;100.00
31403;BME280;18039;52.188;21.024;2023-04-15T10:00:00;75980.75;;;-141.45;100.00
31403;BME280;18039;52.188;21.024;2023-04-15T10:02:28;75984.81;;;-141.45;100.00
31403;BME280;18039;52.188;21.024;2023-04-15T10:04:58;75984.81;;;-141.45;100.00
31403;BME280;18039;52.188;21.024;2023-04-15T10:07:25;75990.91;;;-141.45;100.00
31403;BME280;18039;52.188;21.024;2023-04-15T10:09:53;75980.75;;;-141.45;100.00
31403;BME280;18039;52.188;21.024;2023-04-15T10:12:21;75980.75;;;-141.45;100.00
31403;BME280;18039;52.188;21.024;2023-04-15T10:14:54;75966.56;;;-141.45;100.00
31403;BME280;18039;52.188;21.024;2023-04-15T10:17:22;75968.59;;;-141.45;100.00
31403;BME280;18039;52.188;21.024;2023-04-15T10:19:53;75980.75;;;-141.45;100.00
31403;BME280;18039;52.188;21.024;2023-04-15T10:22:25;75976.72;;;-141.45;100.00
31403;BME280;18039;52.188;21.024;2023-04-15T10:24:55;75968.59;;;-141.45;100.00
31403;BME280;18039;52.188;21.024;2023-04-15T10:27:22;75972.66;;;-141.45;100.00
31403;BME280;18039;52.188;21.024;2023-04-15T10:29:51;75976.72;;;-141.45;100.00
31403;BME280;18039;52.188;21.024;2023-04-15T10:32:19;75960.50;;;-141.45;100.00
31403;BME280;18039;52.188;21.024;2023-04-15T10:34:51;75966.56;;;-141.45;100.00
31403;BME280;18039;52.188;21.024;2023-04-15T10:37:21;75968.59;;;-141.45;100.00
31403;BME280;18039;52.188;21.024;2023-04-15T10:39:49;75972.66;;;-141.45;100.00
31403;BME280;18039;52.188;21.024;2023-04-15T10:42:19;75974.69;;;-141.45;100.00
31403;BME280;18039;52.188;21.024;2023-04-15T10:44:51;75980.75;;;-141.45;100.00
31403;BME280;18039;52.188;21.024;2023-04-15T10:47:22;75992.94;;;-141.45;100.00
31403;BME280;18039;52.188;21.024;2023-04-15T10:49:58;76003.06;;;-141.45;100.00
31403;BME280;18039;52.188;21.024;2023-04-15T10:52:27;75992.94;;;-141.45;100.00
31403;BME280;18039;52.188;21.024;2023-04-15T10:57:37;75994.94;;;-141.45;100.00
31403;BME280;18039;52.188;21.024;2023-04-15T11:02:42;75984.81;;;-141.45;100.00
31403;BME280;18039;52.188;21.024;2023-04-15T11:05:12;75984.81;;;-141.45;100.00
31403;BME280;18039;52.188;21.024;2023-04-15T11:12:40;75980.75;;;-141.45;100.00
31403;BME280;18039;52.188;21.024;2023-04-15T11:17:55;75976.72;;;-141.45;100.00
31403;BME280;18039;52.188;21.024;2023-04-15T11:20:23;75994.94;;;-141.45;100.00
31403;BME280;18039;52.188;21.024;2023-04-15T11:22:52;75996.97;;;-141.45;100.00
31403;BME280;18039;52.188;21.024;2023-04-15T11:25:39;76007.13;;;-141.45;100.00
31403;BME280;18039;52.188;21.024;2023-04-15T11:28:08;76011.16;;;-141.45;100.00
31403;BME280;18039;52.188;21.024;2023-04-15T11:30:36;76009.13;;;-141.45;100.00
31403;BME280;18039;52.188;21.024;2023-04-15T11:33:05;76001.03;;;-141.45;100.00
31403;BME280;18039;52.188;21.024;2023-04-15T11:35:34;76013.19;;;-141.45;100.00
31403;BME280;18039;52.188;21.024;2023-04-15T11:38:07;76009.13;;;-141.45;100.00
31403;BME280;18039;52.188;21.024;2023-04-15T11:40:36;75992.94;;;-141.45;100.00
31403;BME280;18039;52.188;21.024;2023-04-15T11:43:14;75988.88;;;-141.45;100.00
31403;BME280;18039;52.188;21.024;2023-04-15T11:45:54;75992.94;;;-141.45;100.00
31403;BME280;18039;52.188;21.024;2023-04-15T11:48:27;76005.09;;;-141.45;100.00
31403;BME280;18039;52.188;21.024;2023-04-15T11:50:58;75996.97;;;-141.45;100.00
31403;BME280;18039;52.188;21.024;2023-04-15T11:53:43;75984.81;;;-141.45;100.00
31403;BME280;18039;52.188;21.024;2023-04-15T11:58:46;75988.88;;;-141.45;100.00
31403;BME280;18039;52.188;21.024;2023-04-15T12:01:14;75976.72;;;-141.45;100.00
31403;BME280;18039;52.188;21.024;2023-04-15T12:03:44;75972.66;;;-141.45;100.00
31403;BME280;18039;52.188;21.024;2023-04-15T12:11:49;76001.03;;;-141.45;100.00
31403;BME280;18039;52.188;21.024;2023-04-15T12:14:27;75992.94;;;-141.45;100.00
31403;BME280;18039;52.188;21.024;2023-04-15T12:16:59;75992.94;;;-141.45;100.00
31403;BME280;18039;52.188;21.024;2023-04-15T12:19:35;75988.88;;;-141.45;100.00
31403;BME280;18039;52.188;21.024;2023-04-15T12:22:11;75982.78;;;-141.45;100.00
31403;BME280;18039;52.188;21.024;2023-04-15T12:24:39;75984.81;;;-141.45;100.00
31403;BME280;18039;52.188;21.024;2023-04-15T12:27:08;75972.66;;;-141.45;100.00
31403;BME280;18039;52.188;21.024;2023-04-15T12:29:38;75956.44;;;-141.45;100.00
31403;BME280;18039;52.188;21.024;2023-04-15T12:34:37;75960.50;;;-141.45;100.00
31403;BME280;18039;52.188;21.024;2023-04-15T12:37:06;75960.50;;;-141.45;100.00
31403;BME280;18039;52.188;21.024;2023-04-15T12:39:38;75946.31;;;-141.45;100.00
31403;BME280;18039;52.188;21.024;2023-04-15T12:42:06;75940.22;;;-141.45;100.00
31403;BME280;18039;52.188;21.024;2023-04-15T12:44:35;75932.13;;;-141.45;100.00
31403;BME280;18039;52.188;21.024;2023-04-15T12:47:04;75901.72;;;-141.45;100.00
31403;BME280;18039;52.188;21.024;2023-04-15T12:49:31;75895.66;;;-141.45;100.00
31403;BME280;18039;52.188;21.024;2023-04-15T12:52:00;75883.47;;;-141.45;100.00
31403;BME280;18039;52.188;21.024;2023-04-15T12:54:28;75875.38;;;-141.45;99.47